SAS1E ENHD-ENBR
Flight info
| Callsign | SAS1E |
|---|---|
| Flight time | 0h 34m |
| Altitude | 16000 |
| Route | GENVU |
| Aircraft | E195/M-SDE3GILORVW/S |
Departure
| Time | 2026-05-06 19:19 |
|---|---|
| Airport | Haugesund Airport, Karmøy (ENHD) |
Arrival
| Time | 2026-05-06 19:53 |
|---|---|
| Airport | Bergen Airport, Flesland (ENBR) |
| Time | Latitude | Longitude | Altitude | Speed | Heading |
|---|---|---|---|---|---|
| 2026-05-06 18:49 | 59.34428 | 5.21610 | 87 ft | 0 kts | 45° |
| 2026-05-06 18:51 | 59.34420 | 5.21595 | 84 ft | 0 kts | 45° |
| 2026-05-06 18:51 | 59.34428 | 5.21610 | 87 ft | 0 kts | 45° |
| 2026-05-06 18:58 | 59.34420 | 5.21595 | 86 ft | 0 kts | 45° |
| 2026-05-06 18:58 | 59.34428 | 5.21610 | 89 ft | 0 kts | 45° |
| 2026-05-06 19:10 | 59.34426 | 5.21607 | 89 ft | 2 kts | 45° |
| 2026-05-06 19:11 | 59.34408 | 5.21570 | 88 ft | 4 kts | 45° |
| 2026-05-06 19:11 | 59.34395 | 5.21545 | 87 ft | 0 kts | 45° |
| 2026-05-06 19:15 | 59.34396 | 5.21549 | 87 ft | 1 kts | 50° |
| 2026-05-06 19:16 | 59.34388 | 5.21572 | 85 ft | 4 kts | 148° |
| 2026-05-06 19:16 | 59.34321 | 5.21575 | 84 ft | 16 kts | 218° |
| 2026-05-06 19:16 | 59.34240 | 5.21438 | 88 ft | 9 kts | 177° |
| 2026-05-06 19:16 | 59.34176 | 5.21555 | 85 ft | 18 kts | 135° |
| 2026-05-06 19:17 | 59.34054 | 5.21788 | 85 ft | 30 kts | 135° |
| 2026-05-06 19:17 | 59.33910 | 5.22077 | 92 ft | 29 kts | 134° |
| 2026-05-06 19:17 | 59.33790 | 5.22327 | 96 ft | 15 kts | 120° |
| 2026-05-06 19:17 | 59.33760 | 5.22403 | 95 ft | 4 kts | 234° |
| 2026-05-06 19:18 | 59.33774 | 5.22348 | 97 ft | 6 kts | 308° |
| 2026-05-06 19:18 | 59.33811 | 5.22276 | 94 ft | 17 kts | 315° |
| 2026-05-06 19:18 | 59.34061 | 5.21774 | 87 ft | 85 kts | 315° |
| 2026-05-06 19:18 | 59.34615 | 5.20673 | 83 ft | 140 kts | 314° |
| 2026-05-06 19:19 | 59.35338 | 5.19158 | 466 ft | 156 kts | 316° |
| 2026-05-06 19:19 | 59.36143 | 5.17774 | 1323 ft | 150 kts | 326° |
| 2026-05-06 19:19 | 59.37082 | 5.16825 | 1881 ft | 158 kts | 336° |
| 2026-05-06 19:19 | 59.37996 | 5.15510 | 2332 ft | 171 kts | 314° |
| 2026-05-06 19:20 | 59.38912 | 5.13972 | 2820 ft | 179 kts | 333° |
| 2026-05-06 19:20 | 59.40113 | 5.13159 | 3366 ft | 185 kts | 345° |
| 2026-05-06 19:20 | 59.41370 | 5.12412 | 3920 ft | 191 kts | 341° |
| 2026-05-06 19:20 | 59.42622 | 5.11449 | 4484 ft | 196 kts | 335° |
| 2026-05-06 19:21 | 59.43862 | 5.10337 | 5056 ft | 198 kts | 338° |
| 2026-05-06 19:21 | 59.45139 | 5.09219 | 5568 ft | 204 kts | 336° |
| 2026-05-06 19:21 | 59.46470 | 5.07970 | 5870 ft | 225 kts | 336° |
| 2026-05-06 19:21 | 59.47948 | 5.06607 | 6193 ft | 243 kts | 333° |
| 2026-05-06 19:22 | 59.49493 | 5.04988 | 6576 ft | 258 kts | 332° |
| 2026-05-06 19:22 | 59.51134 | 5.03514 | 7218 ft | 260 kts | 337° |
| 2026-05-06 19:22 | 59.52797 | 5.02166 | 7830 ft | 263 kts | 337° |
| 2026-05-06 19:22 | 59.54477 | 5.00711 | 8394 ft | 265 kts | 334° |
| 2026-05-06 19:23 | 59.56152 | 4.99188 | 9014 ft | 267 kts | 337° |
| 2026-05-06 19:23 | 59.57004 | 4.98417 | 9286 ft | 268 kts | 336° |
| 2026-05-06 19:24 | 59.57560 | 4.97921 | 9487 ft | 269 kts | 339° |
| 2026-05-06 19:24 | 59.58793 | 4.96762 | 9933 ft | 271 kts | 330° |
| 2026-05-06 19:24 | 59.59554 | 4.95954 | 10198 ft | 274 kts | 330° |
| 2026-05-06 19:24 | 59.61323 | 4.94285 | 10481 ft | 288 kts | 337° |
| 2026-05-06 19:25 | 59.63269 | 4.93096 | 10903 ft | 297 kts | 352° |
| 2026-05-06 19:25 | 59.65344 | 4.92796 | 11416 ft | 302 kts | 356° |
| 2026-05-06 19:25 | 59.67443 | 4.92484 | 12045 ft | 303 kts | 353° |
| 2026-05-06 19:25 | 59.69553 | 4.92094 | 12603 ft | 306 kts | 354° |
| 2026-05-06 19:26 | 59.71684 | 4.91737 | 13189 ft | 308 kts | 354° |
| 2026-05-06 19:26 | 59.73830 | 4.91393 | 13733 ft | 310 kts | 355° |
| 2026-05-06 19:26 | 59.75990 | 4.91078 | 14296 ft | 314 kts | 354° |
| 2026-05-06 19:26 | 59.78171 | 4.90709 | 14829 ft | 315 kts | 354° |
| 2026-05-06 19:27 | 59.80359 | 4.90224 | 15362 ft | 317 kts | 352° |
| 2026-05-06 19:27 | 59.82555 | 4.89540 | 15835 ft | 321 kts | 351° |
| 2026-05-06 19:27 | 59.84776 | 4.88850 | 16098 ft | 329 kts | 351° |
| 2026-05-06 19:27 | 59.87095 | 4.88196 | 16110 ft | 343 kts | 351° |
| 2026-05-06 19:28 | 59.89490 | 4.87519 | 16107 ft | 352 kts | 350° |
| 2026-05-06 19:28 | 59.91930 | 4.86805 | 15986 ft | 355 kts | 351° |
| 2026-05-06 19:28 | 59.94376 | 4.86131 | 16002 ft | 355 kts | 352° |
| 2026-05-06 19:28 | 59.96828 | 4.85432 | 16010 ft | 356 kts | 351° |
| 2026-05-06 19:29 | 59.99215 | 4.84733 | 16003 ft | 338 kts | 351° |
| 2026-05-06 19:29 | 60.01501 | 4.84101 | 16007 ft | 328 kts | 352° |
| 2026-05-06 19:29 | 60.03749 | 4.83444 | 16006 ft | 325 kts | 350° |
| 2026-05-06 19:29 | 60.05950 | 4.82723 | 16008 ft | 316 kts | 351° |
| 2026-05-06 19:30 | 60.08084 | 4.82074 | 15862 ft | 306 kts | 351° |
| 2026-05-06 19:30 | 60.10216 | 4.81471 | 15015 ft | 314 kts | 351° |
| 2026-05-06 19:30 | 60.12414 | 4.80846 | 14059 ft | 324 kts | 350° |
| 2026-05-06 19:30 | 60.14677 | 4.80213 | 13024 ft | 333 kts | 352° |
| 2026-05-06 19:31 | 60.16972 | 4.79548 | 12451 ft | 328 kts | 352° |
| 2026-05-06 19:31 | 60.19202 | 4.78910 | 12014 ft | 319 kts | 353° |
| 2026-05-06 19:31 | 60.23474 | 4.77709 | 11192 ft | 302 kts | 351° |
| 2026-05-06 19:32 | 60.25525 | 4.77106 | 10804 ft | 295 kts | 350° |
| 2026-05-06 19:32 | 60.27528 | 4.76496 | 10416 ft | 288 kts | 350° |
| 2026-05-06 19:32 | 60.29491 | 4.75924 | 10031 ft | 282 kts | 349° |
| 2026-05-06 19:32 | 60.31386 | 4.75359 | 9928 ft | 266 kts | 351° |
| 2026-05-06 19:33 | 60.33165 | 4.74835 | 9900 ft | 251 kts | 352° |
| 2026-05-06 19:33 | 60.34838 | 4.74363 | 9905 ft | 235 kts | 353° |
| 2026-05-06 19:33 | 60.36422 | 4.73904 | 10018 ft | 226 kts | 352° |
| 2026-05-06 19:33 | 60.38006 | 4.73444 | 9863 ft | 237 kts | 353° |
| 2026-05-06 19:34 | 60.39718 | 4.72928 | 9222 ft | 252 kts | 349° |
| 2026-05-06 19:34 | 60.41312 | 4.72380 | 9806 ft | 212 kts | 347° |
| 2026-05-06 19:34 | 60.42590 | 4.71434 | 10876 ft | 182 kts | 336° |
| 2026-05-06 19:34 | 60.43755 | 4.70424 | 11236 ft | 196 kts | 341° |
| 2026-05-06 19:35 | 60.45184 | 4.69279 | 10397 ft | 236 kts | 341° |
| 2026-05-06 19:35 | 60.46870 | 4.68747 | 9543 ft | 256 kts | 359° |
| 2026-05-06 19:35 | 60.48639 | 4.68768 | 9536 ft | 238 kts | 359° |
| 2026-05-06 19:35 | 60.50196 | 4.68796 | 9943 ft | 228 kts | 359° |
| 2026-05-06 19:36 | 60.51877 | 4.69080 | 9254 ft | 253 kts | 13° |
| 2026-05-06 19:36 | 60.53522 | 4.70189 | 9275 ft | 236 kts | 18° |
| 2026-05-06 19:36 | 60.54937 | 4.71298 | 9933 ft | 210 kts | 17° |
| 2026-05-06 19:36 | 60.56387 | 4.72377 | 9925 ft | 232 kts | 20° |
| 2026-05-06 19:37 | 60.57833 | 4.74093 | 9574 ft | 256 kts | 34° |
| 2026-05-06 19:37 | 60.59228 | 4.76465 | 9303 ft | 253 kts | 39° |
| 2026-05-06 19:37 | 60.60421 | 4.78689 | 9993 ft | 218 kts | 38° |
| 2026-05-06 19:37 | 60.61194 | 4.80122 | 9889 ft | 241 kts | 43° |
| 2026-05-06 19:38 | 60.62398 | 4.83957 | 10501 ft | 217 kts | 59° |
| 2026-05-06 19:38 | 60.63057 | 4.86610 | 11130 ft | 220 kts | 64° |
| 2026-05-06 19:38 | 60.63185 | 4.89876 | 10878 ft | 243 kts | 102° |
| 2026-05-06 19:38 | 60.62398 | 4.92951 | 10728 ft | 251 kts | 130° |
| 2026-05-06 19:39 | 60.61072 | 4.95281 | 10531 ft | 252 kts | 147° |
| 2026-05-06 19:39 | 60.59425 | 4.96282 | 10326 ft | 248 kts | 180° |
| 2026-05-06 19:39 | 60.57699 | 4.96155 | 10134 ft | 249 kts | 184° |
| 2026-05-06 19:39 | 60.55962 | 4.96030 | 9938 ft | 250 kts | 182° |
| 2026-05-06 19:40 | 60.54227 | 4.95929 | 9742 ft | 249 kts | 184° |
| 2026-05-06 19:40 | 60.52505 | 4.95819 | 9534 ft | 246 kts | 186° |
| 2026-05-06 19:40 | 60.50930 | 4.94859 | 9328 ft | 238 kts | 217° |
| 2026-05-06 19:40 | 60.49896 | 4.92390 | 9122 ft | 228 kts | 253° |
| 2026-05-06 19:41 | 60.49776 | 4.89330 | 9020 ft | 212 kts | 290° |
| 2026-05-06 19:41 | 60.50556 | 4.86742 | 8479 ft | 224 kts | 323° |
| 2026-05-06 19:41 | 60.52006 | 4.85492 | 7641 ft | 243 kts | 353° |
| 2026-05-06 19:41 | 60.53727 | 4.85409 | 7320 ft | 238 kts | 358° |
| 2026-05-06 19:42 | 60.55215 | 4.85370 | 8026 ft | 199 kts | 357° |
| 2026-05-06 19:42 | 60.56704 | 4.85300 | 7606 ft | 223 kts | 357° |
| 2026-05-06 19:42 | 60.58284 | 4.85234 | 7137 ft | 230 kts | 357° |
| 2026-05-06 19:42 | 60.59847 | 4.85157 | 7027 ft | 219 kts | 358° |
| 2026-05-06 19:43 | 60.61268 | 4.85149 | 7466 ft | 187 kts | 6° |
| 2026-05-06 19:43 | 60.62420 | 4.86167 | 8071 ft | 188 kts | 32° |
| 2026-05-06 19:43 | 60.63534 | 4.87872 | 7994 ft | 210 kts | 33° |
| 2026-05-06 19:43 | 60.64626 | 4.90146 | 7298 ft | 241 kts | 52° |
| 2026-05-06 19:44 | 60.65582 | 4.93111 | 6518 ft | 259 kts | 53° |
| 2026-05-06 19:44 | 60.66619 | 4.96247 | 5676 ft | 275 kts | 53° |
| 2026-05-06 19:44 | 60.67725 | 4.99553 | 4975 ft | 284 kts | 52° |
| 2026-05-06 19:44 | 60.68796 | 5.02768 | 4996 ft | 264 kts | 52° |
| 2026-05-06 19:45 | 60.69788 | 5.05786 | 4985 ft | 248 kts | 52° |
| 2026-05-06 19:45 | 60.70578 | 5.08785 | 4972 ft | 237 kts | 71° |
| 2026-05-06 19:45 | 60.70532 | 5.12059 | 4936 ft | 232 kts | 109° |
| 2026-05-06 19:45 | 60.69565 | 5.14566 | 4879 ft | 224 kts | 148° |
| 2026-05-06 19:46 | 60.68121 | 5.15310 | 4847 ft | 210 kts | 189° |
| 2026-05-06 19:46 | 60.66769 | 5.14523 | 4889 ft | 198 kts | 201° |
| 2026-05-06 19:46 | 60.65401 | 5.13493 | 4214 ft | 227 kts | 204° |
| 2026-05-06 19:46 | 60.63821 | 5.12259 | 3696 ft | 239 kts | 202° |
| 2026-05-06 19:47 | 60.62392 | 5.11204 | 4136 ft | 210 kts | 203° |
| 2026-05-06 19:47 | 60.60903 | 5.10792 | 3733 ft | 225 kts | 169° |
| 2026-05-06 19:47 | 60.59444 | 5.11548 | 3811 ft | 207 kts | 165° |
| 2026-05-06 19:47 | 60.58057 | 5.12094 | 3920 ft | 202 kts | 174° |
| 2026-05-06 19:48 | 60.56652 | 5.12475 | 3989 ft | 208 kts | 171° |
| 2026-05-06 19:48 | 60.55235 | 5.13016 | 4085 ft | 206 kts | 171° |
| 2026-05-06 19:48 | 60.53822 | 5.13499 | 4183 ft | 207 kts | 172° |
| 2026-05-06 19:48 | 60.52375 | 5.13984 | 3977 ft | 219 kts | 171° |
| 2026-05-06 19:49 | 60.50834 | 5.14512 | 3444 ft | 229 kts | 170° |
| 2026-05-06 19:49 | 60.49239 | 5.15057 | 2919 ft | 235 kts | 171° |
| 2026-05-06 19:49 | 60.47675 | 5.15595 | 2849 ft | 218 kts | 171° |
| 2026-05-06 19:49 | 60.46234 | 5.16086 | 2832 ft | 202 kts | 171° |
| 2026-05-06 19:50 | 60.44894 | 5.16538 | 2779 ft | 189 kts | 172° |
| 2026-05-06 19:50 | 60.43625 | 5.16964 | 2702 ft | 180 kts | 171° |
| 2026-05-06 19:50 | 60.42383 | 5.17412 | 2531 ft | 187 kts | 172° |
| 2026-05-06 19:50 | 60.41091 | 5.17833 | 2303 ft | 189 kts | 173° |
| 2026-05-06 19:51 | 60.39797 | 5.18249 | 2052 ft | 188 kts | 168° |
| 2026-05-06 19:51 | 60.38501 | 5.18736 | 1803 ft | 191 kts | 171° |
| 2026-05-06 19:51 | 60.37184 | 5.19167 | 1555 ft | 192 kts | 173° |
| 2026-05-06 19:51 | 60.35890 | 5.19574 | 1304 ft | 182 kts | 172° |
| 2026-05-06 19:52 | 60.34684 | 5.20021 | 1056 ft | 171 kts | 171° |
| 2026-05-06 19:52 | 60.33548 | 5.20398 | 813 ft | 160 kts | 172° |
| 2026-05-06 19:52 | 60.32482 | 5.20748 | 608 ft | 152 kts | 170° |
| 2026-05-06 19:52 | 60.31463 | 5.21107 | 437 ft | 151 kts | 172° |
| 2026-05-06 19:53 | 60.30425 | 5.21457 | 194 ft | 150 kts | 170° |
| 2026-05-06 19:53 | 60.29502 | 5.21762 | 148 ft | 111 kts | 170° |
| 2026-05-06 19:53 | 60.28925 | 5.21960 | 161 ft | 54 kts | 171° |
| 2026-05-06 19:53 | 60.28711 | 5.22034 | 161 ft | 23 kts | 169° |
| 2026-05-06 19:54 | 60.28671 | 5.22220 | 161 ft | 1 kts | 81° |
| 2026-05-06 19:54 | 60.28672 | 5.22232 | 162 ft | 1 kts | 82° |
| 2026-05-06 19:54 | 60.28673 | 5.22252 | 162 ft | 5 kts | 83° |
| 2026-05-06 19:54 | 60.28681 | 5.22385 | 163 ft | 11 kts | 81° |
| 2026-05-06 19:55 | 60.28712 | 5.22575 | 166 ft | 14 kts | 81° |
| 2026-05-06 19:55 | 60.28725 | 5.22719 | 170 ft | 7 kts | 71° |
| 2026-05-06 19:55 | 60.28767 | 5.22776 | 172 ft | 8 kts | 46° |
| 2026-05-06 19:55 | 60.28778 | 5.22872 | 172 ft | 4 kts | 81° |
| 2026-05-06 19:56 | 60.28780 | 5.22896 | 172 ft | 0 kts | 81° |